createdAt,value
2019-04-25T04:00:41.194Z,48.00
2019-04-25T04:02:41.159Z,68.00
2019-04-25T04:04:41.138Z,88.00
2019-04-25T04:06:48.165Z,116.00
2019-04-25T04:08:41.091Z,148.00
2019-04-25T04:10:41.086Z,188.00
2019-04-25T04:12:41.052Z,228.00
2019-04-25T04:14:41.026Z,280.00
2019-04-25T04:16:41.021Z,332.00
2019-04-25T04:18:41.061Z,388.00
2019-04-25T04:20:40.985Z,452.00
2019-04-25T04:22:41.007Z,524.00
2019-04-25T04:24:40.925Z,604.00
2019-04-25T04:26:40.957Z,680.00
2019-04-25T04:28:40.897Z,772.00
2019-04-25T04:30:40.858Z,852.00
2019-04-25T04:32:40.880Z,928.00
2019-04-25T04:34:40.914Z,988.00
2019-04-25T04:36:40.814Z,1012.00
2019-04-25T04:38:40.818Z,1108.00
2019-04-25T04:40:40.796Z,1256.00
2019-04-25T04:42:40.736Z,1484.00
2019-04-25T04:44:40.723Z,1780.00
2019-04-25T04:46:40.694Z,1944.00
2019-04-25T04:48:40.723Z,2060.00
2019-04-25T04:50:40.661Z,2352.00
2019-04-25T04:52:40.641Z,2560.00
2019-04-25T04:54:40.616Z,2800.00
2019-04-25T04:56:40.614Z,3172.00
2019-04-25T04:58:40.573Z,3532.00
2019-04-25T05:00:40.556Z,4468.00
2019-04-25T05:02:40.566Z,5748.00
2019-04-25T05:04:40.512Z,7008.00
2019-04-25T05:06:40.503Z,5496.00
2019-04-25T05:08:40.507Z,5176.00
2019-04-25T05:10:40.457Z,5420.00
2019-04-25T05:12:40.412Z,6156.00
2019-04-25T05:14:40.430Z,5596.00
2019-04-25T05:16:40.395Z,9456.00
2019-04-25T05:18:40.347Z,6008.00
2019-04-25T05:20:40.385Z,6704.00
2019-04-25T05:22:40.308Z,6200.00
2019-04-25T05:24:40.301Z,6676.00
2019-04-25T05:26:40.300Z,22944.00
2019-04-25T05:28:40.245Z,22592.00
2019-04-25T05:30:40.233Z,48416.00
2019-04-25T05:32:40.230Z,47040.00
2019-04-25T05:34:40.259Z,46944.00
2019-04-25T05:36:40.159Z,44704.00
2019-04-25T05:38:40.137Z,37088.00
2019-04-25T05:40:40.192Z,16608.00
2019-04-25T05:42:40.105Z,15232.00
2019-04-25T05:44:40.121Z,6136.00
2019-04-25T05:46:40.088Z,5984.00
2019-04-25T05:48:40.036Z,15296.00
2019-04-25T05:50:40.040Z,18432.00
2019-04-25T05:52:40.063Z,14820.00
2019-04-25T05:54:39.962Z,34464.00
2019-04-25T05:56:39.993Z,42464.00
2019-04-25T05:58:39.966Z,31552.00
2019-04-25T06:00:39.900Z,46208.00
2019-04-25T06:02:39.880Z,38240.00
2019-04-25T06:04:39.893Z,36096.00
2019-04-25T06:06:39.891Z,29024.00
2019-04-25T06:08:39.818Z,51104.00
2019-04-25T06:10:39.828Z,44256.00
2019-04-25T06:12:39.767Z,46592.00
2019-04-25T06:14:39.756Z,35584.00
2019-04-25T06:16:39.755Z,15616.00
2019-04-25T06:18:39.708Z,13656.00
2019-04-25T06:20:39.713Z,30496.00
2019-04-25T06:22:39.661Z,34176.00
2019-04-25T06:24:39.693Z,24416.00
2019-04-25T06:26:40.085Z,27808.00
2019-04-25T06:28:49.156Z,13856.00
2019-04-25T06:30:40.613Z,12564.00
2019-04-25T06:32:39.557Z,18112.00
2019-04-25T06:34:39.533Z,14236.00
2019-04-25T06:36:39.557Z,15008.00
2019-04-25T06:38:39.512Z,10952.00
2019-04-25T06:40:39.470Z,12512.00
2019-04-25T06:42:39.527Z,11792.00
2019-04-25T06:44:39.431Z,13316.00
2019-04-25T06:46:39.408Z,18208.00
2019-04-25T06:48:39.443Z,12796.00
2019-04-25T06:50:39.374Z,8492.00
2019-04-25T06:52:39.340Z,7344.00
2019-04-25T06:54:39.372Z,6452.00
2019-04-25T06:56:39.327Z,5868.00
2019-04-25T06:58:39.295Z,5472.00
2019-04-25T07:00:42.561Z,5720.00
2019-04-25T07:02:40.254Z,6792.00
2019-04-25T07:04:39.222Z,8020.00
2019-04-25T07:06:39.218Z,11588.00
2019-04-25T07:08:39.221Z,11076.00
2019-04-25T07:10:39.162Z,8668.00
2019-04-25T07:12:39.138Z,8676.00
2019-04-25T07:14:39.122Z,13912.00
2019-04-25T07:16:39.079Z,15296.00
2019-04-25T07:18:39.084Z,11280.00
2019-04-25T07:20:39.053Z,8944.00
2019-04-25T07:22:39.021Z,8216.00
2019-04-25T07:24:39.013Z,7872.00
2019-04-25T07:26:39.797Z,7388.00
2019-04-25T07:28:38.966Z,7392.00
2019-04-25T07:30:50.220Z,7680.00
2019-04-25T07:32:39.959Z,7292.00
2019-04-25T07:34:38.900Z,6496.00
2019-04-25T07:36:38.874Z,6092.00
2019-04-25T07:38:38.892Z,6408.00
2019-04-25T07:40:38.870Z,6476.00
2019-04-25T07:42:38.801Z,6520.00
2019-04-25T07:44:49.724Z,6484.00
2019-04-25T07:46:40.190Z,6672.00
2019-04-25T07:48:38.751Z,10612.00
2019-04-25T07:50:38.747Z,12448.00
2019-04-25T07:52:38.725Z,14624.00
2019-04-25T07:54:38.675Z,14816.00
2019-04-25T07:56:38.666Z,12512.00
2019-04-25T07:58:49.142Z,12336.00
2019-04-25T08:00:39.613Z,13264.00
2019-04-25T08:02:39.527Z,10276.00
2019-04-25T08:04:38.587Z,9132.00
2019-04-25T08:06:38.563Z,8412.00
2019-04-25T08:08:38.559Z,6784.00
2019-04-25T08:10:38.514Z,6452.00
2019-04-25T08:12:39.361Z,6364.00
2019-04-25T08:14:38.499Z,7132.00
2019-04-25T08:16:39.273Z,6808.00
2019-04-25T08:18:38.964Z,6800.00
2019-04-25T08:20:38.405Z,8392.00
2019-04-25T08:22:52.005Z,7284.00
2019-04-25T08:24:39.405Z,5456.00
2019-04-25T08:26:39.344Z,4248.00
2019-04-25T08:28:49.930Z,3528.00
2019-04-25T08:30:39.325Z,3448.00
2019-04-25T08:32:38.274Z,3724.00
2019-04-25T08:34:38.622Z,4172.00
2019-04-25T08:36:38.892Z,4880.00
2019-04-25T08:38:38.216Z,5840.00
2019-04-25T08:40:39.012Z,7516.00
2019-04-25T08:42:38.192Z,11896.00
2019-04-25T08:44:39.166Z,12612.00
2019-04-25T08:46:39.340Z,10932.00
2019-04-25T08:48:38.123Z,10596.00
2019-04-25T08:50:40.144Z,11680.00
2019-04-25T08:52:38.077Z,12896.00
2019-04-25T08:54:41.085Z,13492.00
2019-04-25T08:56:39.824Z,13328.00
2019-04-25T08:58:37.986Z,12756.00
2019-04-25T09:00:38.314Z,10988.00
2019-04-25T09:02:38.875Z,10720.00
2019-04-25T09:04:38.074Z,9772.00
2019-04-25T09:06:38.624Z,9132.00
2019-04-25T09:08:38.454Z,9424.00
2019-04-25T09:10:38.960Z,9608.00
2019-04-25T09:12:37.877Z,10228.00
2019-04-25T09:14:38.194Z,10032.00
2019-04-25T09:16:37.909Z,9052.00
2019-04-25T09:18:38.183Z,8772.00
2019-04-25T09:20:39.647Z,7380.00
2019-04-25T09:22:38.606Z,7744.00
2019-04-25T09:24:38.948Z,7508.00
2019-04-25T09:26:38.358Z,7216.00
2019-04-25T09:28:39.476Z,6872.00
2019-04-25T09:30:38.374Z,7012.00
2019-04-25T09:32:37.648Z,7596.00
2019-04-25T09:34:38.122Z,7884.00
2019-04-25T09:36:37.733Z,7988.00
2019-04-25T09:38:37.584Z,7948.00
2019-04-25T09:40:37.550Z,7580.00
2019-04-25T09:42:37.549Z,8316.00
2019-04-25T09:44:38.459Z,9992.00
2019-04-25T09:46:37.475Z,11108.00
2019-04-25T09:48:37.570Z,11296.00
2019-04-25T09:50:38.651Z,9260.00
2019-04-25T09:52:37.732Z,7512.00
2019-04-25T09:54:38.038Z,9824.00
2019-04-25T09:56:38.246Z,11676.00
2019-04-25T09:58:37.969Z,13328.00
2019-04-25T10:00:38.207Z,14368.00
2019-04-25T10:02:38.174Z,10984.00
2019-04-25T10:04:37.931Z,9924.00
2019-04-25T10:06:37.369Z,8632.00
2019-04-25T10:08:37.253Z,7900.00
2019-04-25T10:10:38.007Z,8508.00
2019-04-25T10:12:45.326Z,8076.00
2019-04-25T10:14:37.639Z,8484.00
2019-04-25T10:16:37.943Z,8224.00
2019-04-25T10:18:37.898Z,8304.00
2019-04-25T10:20:37.654Z,8716.00
2019-04-25T10:22:38.076Z,8868.00
2019-04-25T10:24:37.434Z,9564.00
2019-04-25T10:26:37.641Z,9448.00
2019-04-25T10:28:37.028Z,11544.00
2019-04-25T10:30:37.001Z,10664.00
2019-04-25T10:32:37.083Z,9908.00
2019-04-25T10:34:36.986Z,11004.00
2019-04-25T10:36:39.765Z,9696.00
2019-04-25T10:38:36.996Z,11900.00
2019-04-25T10:40:37.016Z,11772.00
2019-04-25T10:42:36.922Z,9268.00
2019-04-25T10:44:36.866Z,9260.00
2019-04-25T10:46:36.837Z,9224.00
2019-04-25T10:48:36.909Z,9160.00
2019-04-25T10:50:36.790Z,8444.00
2019-04-25T10:52:36.788Z,7844.00
2019-04-25T10:54:36.750Z,7956.00
2019-04-25T10:56:36.836Z,7564.00
2019-04-25T10:58:36.752Z,6180.00
2019-04-25T11:00:36.719Z,7160.00
2019-04-25T11:02:36.652Z,5628.00
2019-04-25T11:04:36.744Z,5948.00
2019-04-25T11:06:36.656Z,6308.00
2019-04-25T11:08:36.621Z,9044.00
2019-04-25T11:10:36.588Z,9276.00
2019-04-25T11:12:36.576Z,9108.00
2019-04-25T11:14:36.518Z,8556.00
2019-04-25T11:16:36.507Z,7980.00
2019-04-25T11:18:36.496Z,7568.00
2019-04-25T11:20:36.458Z,8168.00
2019-04-25T11:22:36.453Z,8956.00
2019-04-25T11:24:36.414Z,8736.00
2019-04-25T11:26:36.473Z,9076.00
2019-04-25T11:28:36.414Z,9372.00
2019-04-25T11:30:36.380Z,9672.00
2019-04-25T11:32:36.346Z,10012.00
2019-04-25T11:34:36.379Z,9804.00
2019-04-25T11:36:36.343Z,8424.00
2019-04-25T11:38:36.291Z,8492.00
2019-04-25T11:40:36.236Z,10092.00
2019-04-25T11:42:36.362Z,8628.00
2019-04-25T11:44:36.226Z,7760.00
2019-04-25T11:46:36.201Z,6300.00
2019-04-25T11:48:36.168Z,6292.00
2019-04-25T11:50:37.110Z,8324.00
2019-04-25T11:52:36.155Z,6360.00
2019-04-25T11:54:36.111Z,5308.00
2019-04-25T11:56:36.066Z,5740.00
2019-04-25T11:58:36.169Z,4280.00
2019-04-25T12:00:36.074Z,5900.00
2019-04-25T12:02:36.053Z,7056.00
2019-04-25T12:04:35.984Z,6320.00
2019-04-25T12:06:36.074Z,6028.00
2019-04-25T12:08:35.980Z,6080.00
2019-04-25T12:10:35.950Z,6196.00
2019-04-25T12:12:37.285Z,7532.00
2019-04-25T12:14:35.967Z,8228.00
2019-04-25T12:16:35.873Z,8836.00
2019-04-25T12:18:35.880Z,8712.00
2019-04-25T12:20:35.808Z,7836.00
2019-04-25T12:22:35.827Z,7540.00
2019-04-25T12:24:44.536Z,7824.00
2019-04-25T12:26:35.744Z,7416.00
2019-04-25T12:28:42.766Z,8556.00
2019-04-25T12:30:40.101Z,9256.00
2019-04-25T12:32:35.683Z,8236.00
2019-04-25T12:34:35.661Z,9296.00
2019-04-25T12:36:35.648Z,7356.00
2019-04-25T12:38:35.654Z,7276.00
2019-04-25T12:40:35.612Z,8640.00
2019-04-25T12:42:35.720Z,7708.00
2019-04-25T12:44:35.586Z,6636.00
2019-04-25T12:46:35.579Z,6448.00
2019-04-25T12:48:35.523Z,7360.00
2019-04-25T12:50:35.615Z,7888.00
2019-04-25T12:52:35.497Z,8352.00
2019-04-25T12:54:35.519Z,8640.00
2019-04-25T12:56:35.430Z,9248.00
2019-04-25T12:58:35.517Z,9328.00
2019-04-25T13:00:47.310Z,8392.00
2019-04-25T13:02:36.681Z,8636.00
2019-04-25T13:04:35.353Z,9120.00
2019-04-25T13:06:35.353Z,9304.00
2019-04-25T13:08:35.310Z,8988.00
2019-04-25T13:10:35.279Z,8484.00
2019-04-25T13:12:35.310Z,8308.00
2019-04-25T13:14:35.233Z,8656.00
2019-04-25T13:16:35.213Z,8940.00
2019-04-25T13:18:35.254Z,9032.00
2019-04-25T13:20:35.178Z,8140.00
2019-04-25T13:22:35.184Z,7124.00
2019-04-25T13:24:35.183Z,6300.00
2019-04-25T13:26:35.107Z,6304.00
2019-04-25T13:28:35.100Z,5400.00
2019-04-25T13:30:35.128Z,5100.00
2019-04-25T13:32:35.044Z,5592.00
2019-04-25T13:34:36.574Z,6948.00
2019-04-25T13:36:35.040Z,8044.00
2019-04-25T13:38:34.980Z,8352.00
2019-04-25T13:40:34.977Z,8464.00
2019-04-25T13:42:34.987Z,8100.00
2019-04-25T13:44:34.919Z,8096.00
2019-04-25T13:46:34.909Z,8200.00
2019-04-25T13:48:35.662Z,8244.00
2019-04-25T13:50:34.850Z,8356.00
2019-04-25T13:52:36.184Z,8512.00
2019-04-25T13:54:35.095Z,7704.00
2019-04-25T13:56:39.097Z,6760.00
2019-04-25T13:58:35.823Z,6428.00
2019-04-25T14:00:34.974Z,6336.00
2019-04-25T14:02:34.725Z,8172.00
2019-04-25T14:04:35.757Z,7508.00
2019-04-25T14:06:34.678Z,7196.00
2019-04-25T14:08:34.674Z,6224.00
2019-04-25T14:10:34.736Z,6724.00
2019-04-25T14:12:34.617Z,8388.00
2019-04-25T14:14:36.019Z,6704.00
2019-04-25T14:16:34.891Z,6464.00
2019-04-25T14:18:34.553Z,6484.00
2019-04-25T14:20:34.542Z,7412.00
2019-04-25T14:22:34.513Z,7672.00
2019-04-25T14:24:35.797Z,6756.00
2019-04-25T14:26:34.525Z,7480.00
2019-04-25T14:28:35.434Z,5024.00
2019-04-25T14:30:35.926Z,4784.00
2019-04-25T14:32:35.199Z,5196.00
2019-04-25T14:34:34.413Z,5512.00
2019-04-25T14:36:34.589Z,5532.00
2019-04-25T14:38:35.479Z,5028.00
2019-04-25T14:40:34.442Z,4492.00
2019-04-25T14:42:34.354Z,3872.00
2019-04-25T14:44:34.312Z,3644.00
2019-04-25T14:46:34.259Z,3404.00
2019-04-25T14:48:34.271Z,3308.00
2019-04-25T14:50:34.217Z,3332.00
2019-04-25T14:52:34.203Z,3544.00
2019-04-25T14:54:36.032Z,3976.00
2019-04-25T14:56:34.145Z,4208.00
2019-04-25T14:58:34.136Z,3912.00
2019-04-25T15:00:34.232Z,3792.00
2019-04-25T15:02:34.271Z,3876.00
2019-04-25T15:04:34.076Z,4072.00
2019-04-25T15:06:34.079Z,4564.00
2019-04-25T15:08:34.039Z,5060.00
2019-04-25T15:10:34.115Z,5372.00
2019-04-25T15:12:34.048Z,5104.00
2019-04-25T15:14:33.969Z,4868.00
2019-04-25T15:16:34.058Z,5156.00
2019-04-25T15:18:45.859Z,5164.00
2019-04-25T15:20:34.936Z,4876.00
2019-04-25T15:22:34.671Z,4192.00
2019-04-25T15:24:34.845Z,3760.00
2019-04-25T15:26:33.842Z,3756.00
2019-04-25T15:28:33.806Z,4164.00
2019-04-25T15:30:33.808Z,4432.00
2019-04-25T15:32:34.726Z,4516.00
2019-04-25T15:34:33.770Z,4012.00
2019-04-25T15:36:33.715Z,3744.00
2019-04-25T15:38:33.822Z,3296.00
2019-04-25T15:40:34.437Z,2480.00
2019-04-25T15:42:33.989Z,2356.00
2019-04-25T15:44:33.643Z,2792.00
2019-04-25T15:46:34.445Z,3584.00
2019-04-25T15:48:33.595Z,4596.00
2019-04-25T15:50:34.085Z,4956.00
2019-04-25T15:52:33.828Z,4296.00
2019-04-25T15:54:33.894Z,3692.00
2019-04-25T15:56:33.552Z,3400.00
2019-04-25T15:58:33.475Z,3356.00
2019-04-25T16:00:33.492Z,3388.00
2019-04-25T16:02:33.444Z,3552.00
2019-04-25T16:04:33.409Z,3564.00
2019-04-25T16:06:34.060Z,3176.00
2019-04-25T16:08:33.386Z,2824.00
2019-04-25T16:10:34.015Z,2748.00
2019-04-25T16:12:33.329Z,2588.00
2019-04-25T16:14:33.434Z,2320.00
2019-04-25T16:16:33.314Z,2196.00
2019-04-25T16:18:33.280Z,2344.00
2019-04-25T16:20:33.582Z,2464.00
2019-04-25T16:22:34.359Z,2488.00
2019-04-25T16:24:34.275Z,2852.00
2019-04-25T16:26:33.616Z,2980.00
2019-04-25T16:28:33.894Z,2920.00
2019-04-25T16:30:33.146Z,2772.00
2019-04-25T16:32:33.257Z,2848.00
2019-04-25T16:34:33.146Z,3140.00
2019-04-25T16:36:33.127Z,3092.00
2019-04-25T16:38:33.354Z,2788.00
2019-04-25T16:40:33.877Z,2656.00
2019-04-25T16:42:33.777Z,2532.00
2019-04-25T16:44:33.753Z,2252.00
2019-04-25T16:46:32.978Z,2096.00
2019-04-25T16:48:33.721Z,1980.00
2019-04-25T16:50:32.925Z,1868.00
2019-04-25T16:52:33.749Z,1824.00
2019-04-25T16:54:33.648Z,1856.00
2019-04-25T16:56:32.856Z,1776.00
2019-04-25T16:58:32.981Z,1864.00
2019-04-25T17:00:32.810Z,2100.00
2019-04-25T17:02:38.287Z,2092.00
2019-04-25T17:04:33.809Z,2116.00
2019-04-25T17:06:33.793Z,2116.00
2019-04-25T17:08:32.735Z,2068.00
2019-04-25T17:10:32.834Z,1864.00
2019-04-25T17:12:32.680Z,1500.00
2019-04-25T17:14:32.813Z,1416.00
2019-04-25T17:16:32.690Z,1492.00
2019-04-25T17:18:44.509Z,1672.00
2019-04-25T17:20:54.665Z,1736.00
2019-04-25T17:22:32.586Z,1736.00
2019-04-25T17:24:32.551Z,1532.00
2019-04-25T17:26:32.790Z,1228.00
2019-04-25T17:28:32.704Z,964.00
2019-04-25T17:30:32.642Z,912.00
2019-04-25T17:32:36.667Z,900.00
2019-04-25T17:34:34.062Z,848.00
2019-04-25T17:36:34.614Z,624.00
2019-04-25T17:38:36.046Z,488.00
2019-04-25T17:40:35.944Z,400.00
2019-04-25T17:42:32.513Z,380.00
2019-04-25T17:44:32.789Z,360.00
2019-04-25T17:46:32.739Z,292.00
2019-04-25T17:48:32.912Z,244.00
2019-04-25T17:50:32.922Z,212.00
2019-04-25T17:52:32.726Z,196.00
2019-04-25T17:54:32.922Z,200.00
2019-04-25T17:56:33.188Z,192.00
2019-04-25T17:58:32.282Z,184.00
2019-04-25T18:00:33.751Z,184.00
2019-04-25T18:02:33.544Z,176.00
2019-04-25T18:04:32.134Z,172.00
2019-04-25T18:06:32.106Z,176.00
2019-04-25T18:08:32.094Z,180.00
2019-04-25T18:10:32.212Z,160.00
2019-04-25T18:12:32.059Z,136.00
2019-04-25T18:14:32.052Z,112.00
2019-04-25T18:16:31.991Z,100.00
2019-04-25T18:18:32.029Z,92.00
2019-04-25T18:20:31.976Z,76.00
2019-04-25T18:22:31.953Z,68.00
2019-04-25T18:24:31.921Z,76.00
2019-04-25T18:26:31.957Z,80.00
2019-04-25T18:28:31.871Z,80.00
2019-04-25T18:30:31.912Z,68.00
2019-04-25T18:32:31.828Z,48.00
2019-04-25T18:34:31.874Z,40.00
2019-04-25T18:36:31.812Z,36.00
2019-04-25T18:38:31.772Z,28.00
2019-04-25T18:40:31.736Z,16.00
2019-04-25T18:42:31.793Z,8.00
2019-04-25T18:44:31.715Z,8.00
2019-04-25T18:46:31.692Z,8.00
2019-04-25T18:48:31.664Z,4.00
2019-04-25T18:50:31.713Z,4.00
2019-04-25T18:52:31.652Z,0.00
2019-04-25T18:54:31.606Z,4.00
2019-04-25T18:56:31.563Z,0.00
2019-04-25T18:58:31.624Z,0.00
2019-04-25T19:00:31.556Z,0.00
2019-04-25T19:02:31.526Z,0.00
2019-04-25T19:04:31.510Z,0.00
2019-04-25T19:06:31.543Z,0.00
2019-04-25T19:08:31.448Z,0.00
2019-04-25T19:10:31.435Z,0.00
2019-04-25T19:12:31.392Z,0.00
2019-04-25T19:14:31.460Z,0.00
2019-04-25T19:16:31.420Z,0.00
2019-04-25T19:18:31.352Z,0.00
2019-04-25T19:20:31.314Z,0.00
2019-04-25T19:22:31.287Z,0.00
2019-04-25T19:24:31.265Z,0.00
2019-04-25T19:26:31.265Z,0.00
2019-04-25T19:28:31.221Z,0.00
2019-04-25T19:30:31.204Z,0.00
2019-04-25T19:32:31.190Z,0.00
2019-04-25T19:34:31.160Z,0.00
2019-04-25T19:36:31.135Z,0.00
2019-04-25T19:38:31.128Z,0.00
2019-04-25T19:40:31.137Z,0.00
2019-04-25T19:42:31.095Z,0.00
2019-04-25T19:44:31.047Z,0.00
2019-04-25T19:46:31.054Z,0.00
2019-04-25T19:48:31.021Z,0.00
2019-04-25T19:50:30.995Z,0.00
2019-04-25T19:52:30.968Z,0.00
2019-04-25T19:54:30.953Z,0.00
2019-04-25T19:56:30.962Z,0.00
2019-04-25T19:58:30.899Z,0.00
2019-04-25T20:00:30.928Z,0.00
2019-04-25T20:02:30.865Z,0.00
2019-04-25T20:04:30.841Z,0.00
2019-04-25T20:06:30.826Z,0.00
2019-04-25T20:08:30.896Z,0.00
2019-04-25T20:10:30.810Z,0.00
2019-04-25T20:12:30.788Z,0.00
2019-04-25T20:14:30.729Z,0.00
2019-04-25T20:16:30.843Z,0.00
2019-04-25T20:18:30.734Z,0.00
2019-04-25T20:20:30.707Z,0.00
2019-04-25T20:22:30.659Z,0.00
2019-04-25T20:24:30.775Z,0.00
2019-04-25T20:26:30.627Z,0.00
2019-04-25T20:28:30.611Z,0.00
2019-04-25T20:30:30.776Z,0.00
2019-04-25T20:32:33.128Z,0.00
2019-04-25T20:34:32.165Z,0.00
2019-04-25T20:36:30.884Z,0.00
2019-04-25T20:38:30.526Z,0.00
2019-04-25T20:40:30.672Z,0.00
2019-04-25T20:42:30.450Z,0.00
2019-04-25T20:44:30.602Z,0.00
2019-04-25T20:46:30.390Z,0.00
2019-04-25T20:48:30.530Z,0.00
2019-04-25T20:50:30.356Z,0.00
2019-04-25T20:52:30.359Z,0.00
2019-04-25T20:54:30.356Z,0.00
2019-04-25T20:56:30.462Z,0.00
2019-04-25T20:58:30.284Z,0.00
2019-04-25T21:00:30.253Z,0.00
2019-04-25T21:02:30.208Z,0.00
2019-04-25T21:04:30.222Z,0.00
2019-04-25T21:06:44.711Z,0.00
2019-04-25T21:09:02.279Z,0.00
2019-04-25T21:10:32.209Z,0.00
2019-04-25T21:12:30.112Z,0.00
2019-04-25T21:14:30.093Z,0.00
2019-04-25T21:16:30.227Z,0.00
2019-04-25T21:18:30.044Z,0.00
2019-04-25T21:20:30.032Z,0.00
2019-04-25T21:22:37.684Z,0.00
2019-04-25T21:24:29.980Z,0.00
2019-04-25T21:26:30.467Z,0.00
2019-04-25T21:28:29.931Z,0.00
2019-04-25T21:30:29.936Z,0.00
2019-04-25T21:32:29.925Z,0.00
2019-04-25T21:34:30.830Z,0.00
2019-04-25T21:36:29.858Z,0.00
2019-04-25T21:38:29.919Z,0.00
2019-04-25T21:40:30.283Z,0.00
2019-04-25T21:42:29.980Z,0.00
2019-04-25T21:44:30.009Z,0.00
2019-04-25T21:46:29.752Z,0.00
2019-04-25T21:48:29.720Z,0.00
2019-04-25T21:50:29.724Z,0.00
2019-04-25T21:52:29.733Z,0.00
2019-04-25T21:54:29.660Z,0.00
2019-04-25T21:56:29.672Z,0.00
2019-04-25T21:58:29.619Z,0.00
2019-04-25T22:00:29.600Z,0.00
2019-04-25T22:02:29.581Z,0.00
2019-04-25T22:04:38.558Z,0.00
2019-04-25T22:06:30.540Z,0.00
2019-04-25T22:08:29.505Z,0.00
2019-04-25T22:10:29.601Z,0.00
2019-04-25T22:12:29.667Z,0.00
2019-04-25T22:14:29.631Z,0.00
2019-04-25T22:16:31.171Z,0.00
2019-04-25T22:18:29.438Z,0.00
2019-04-25T22:20:29.372Z,0.00
2019-04-25T22:22:29.412Z,0.00
2019-04-25T22:24:29.397Z,0.00
2019-04-25T22:26:29.479Z,0.00
2019-04-25T22:28:29.289Z,0.00
2019-04-25T22:30:29.431Z,0.00
2019-04-25T22:32:29.454Z,0.00
2019-04-25T22:34:29.224Z,0.00
2019-04-25T22:36:29.244Z,0.00
2019-04-25T22:38:29.290Z,0.00
2019-04-25T22:40:29.180Z,0.00
2019-04-25T22:42:29.141Z,0.00
2019-04-25T22:44:29.200Z,0.00
2019-04-25T22:46:29.092Z,0.00
2019-04-25T22:48:29.146Z,0.00
2019-04-25T22:50:29.065Z,0.00
2019-04-25T22:52:29.027Z,0.00
2019-04-25T22:54:36.133Z,0.00
2019-04-25T22:56:29.091Z,0.00
2019-04-25T22:58:28.998Z,0.00
2019-04-25T23:00:28.981Z,0.00
2019-04-25T23:02:29.045Z,0.00
2019-04-25T23:04:28.904Z,0.00
2019-04-25T23:06:28.885Z,0.00
2019-04-25T23:08:28.865Z,0.00
2019-04-25T23:10:28.852Z,0.00
2019-04-25T23:12:28.822Z,0.00
2019-04-25T23:14:28.790Z,0.00
2019-04-25T23:16:28.771Z,0.00
2019-04-25T23:18:28.795Z,0.00
2019-04-25T23:20:28.728Z,0.00
2019-04-25T23:22:28.811Z,0.00
2019-04-25T23:24:28.700Z,0.00
2019-04-25T23:26:28.697Z,0.00
2019-04-25T23:28:28.653Z,0.00
